Time;durP1;ratioP1;P1;durP2;ratioP2;P2;SDS_P1;SDS_P2;PMS_P1;PMS_P2;Temp;Humidity;BMP_temperature;BMP_pressure;BME280_temperature;BME280_humidity;BME280_pressure;Samples;Min_cycle;Max_cycle;Signal;HPM_P1;HPM_P2
2022/09/06 00:00:12;;;;;;;;;4.00;4.00;;;;;21.28;67.98;100824.59;5083307;27;45536;-56
2022/09/06 00:02:37;;;;;;;;;4.00;4.00;;;;;21.28;68.07;100828.16;5096939;27;45470;-54
2022/09/06 00:05:04;;;;;;;;;3.67;3.00;;;;;21.25;68.49;100835.69;5096459;27;45527;-56
2022/09/06 00:07:29;;;;;;;;;3.33;3.33;;;;;21.13;68.23;100811.53;5097453;27;46575;-55
2022/09/06 00:09:55;;;;;;;;;4.00;4.00;;;;;21.26;68.32;100848.25;5092257;27;45351;-57
2022/09/06 00:12:22;;;;;;;;;4.00;3.00;;;;;21.24;68.55;100845.66;5087469;27;45495;-55
2022/09/06 00:14:47;;;;;;;;;5.33;3.00;;;;;21.21;68.46;100837.81;5075254;27;45378;-55
2022/09/06 00:17:12;;;;;;;;;4.00;4.00;;;;;21.20;68.20;100839.66;5077557;27;45363;-55
2022/09/06 00:19:38;;;;;;;;;1.33;1.33;;;;;21.14;67.57;100837.56;5081818;27;45703;-55
2022/09/06 00:22:03;;;;;;;;;9.00;3.00;;;;;21.18;68.22;100843.53;5097514;27;45494;-55
2022/09/06 00:24:28;;;;;;;;;5.00;5.00;;;;;21.16;68.37;100846.38;5096231;27;45618;-57
2022/09/06 00:26:54;;;;;;;;;4.33;4.33;;;;;21.14;68.38;100839.41;5103141;27;47208;-57
2022/09/06 00:29:19;;;;;;;;;4.00;4.00;;;;;21.17;68.55;100850.78;5100458;27;45536;-55
2022/09/06 00:31:44;;;;;;;;;3.67;3.67;;;;;21.17;68.49;100849.94;5097388;27;45263;-55
2022/09/06 00:34:10;;;;;;;;;5.00;5.00;;;;;21.17;68.83;100852.63;5095640;27;46482;-56
2022/09/06 00:36:35;;;;;;;;;6.00;6.00;;;;;21.13;68.55;100849.38;5097082;27;45358;-55
2022/09/06 00:39:00;;;;;;;;;5.33;4.00;;;;;21.10;68.81;100848.84;5094488;27;45823;-56
2022/09/06 00:41:26;;;;;;;;;6.67;5.67;;;;;21.12;68.54;100853.09;5095499;27;45184;-54
2022/09/06 00:43:51;;;;;;;;;5.67;4.00;;;;;21.09;69.15;100853.38;5097475;27;45159;-53
2022/09/06 00:46:22;;;;;;;;;7.67;7.67;;;;;21.13;68.79;100862.06;5092379;27;46867;-55
2022/09/06 00:48:51;;;;;;;;;6.00;6.00;;;;;21.11;68.94;100859.50;5076692;27;45495;-55
2022/09/06 00:51:19;;;;;;;;;4.00;4.00;;;;;21.11;68.97;100862.22;5093671;27;45316;-56
2022/09/06 00:53:45;;;;;;;;;3.00;3.00;;;;;21.07;69.00;100852.66;5108270;27;45583;-54
2022/09/06 00:56:11;;;;;;;;;4.67;4.67;;;;;21.09;69.21;100849.81;5092268;27;45406;-54
2022/09/06 00:58:37;;;;;;;;;5.00;5.00;;;;;21.04;68.82;100844.84;5096820;27;45471;-56
2022/09/06 01:01:02;;;;;;;;;8.00;6.67;;;;;21.06;68.91;100852.81;5095316;27;45585;-56
2022/09/06 01:03:28;;;;;;;;;6.33;6.33;;;;;21.04;69.18;100852.13;5097432;27;45474;-54
2022/09/06 01:06:03;;;;;;;;;4.00;4.00;;;;;21.05;69.46;100851.97;5094727;27;45625;-54
2022/09/06 01:08:34;;;;;;;;;6.67;6.67;;;;;21.05;69.29;100851.13;5061532;27;45550;-55
2022/09/06 01:11:25;;;;;;;;;4.33;4.00;;;;;20.98;69.24;100848.16;5091577;27;45969;-55
2022/09/06 01:14:35;;;;;;;;;5.33;5.00;;;;;21.01;69.06;100853.28;5097265;27;45394;-55
2022/09/06 01:17:36;;;;;;;;;5.00;5.00;;;;;21.02;68.96;100849.56;5080168;27;46267;-56
2022/09/06 01:20:10;;;;;;;;;4.67;4.67;;;;;21.02;69.13;100851.41;5066560;27;45325;-56
2022/09/06 01:23:14;;;;;;;;;7.33;6.00;;;;;21.02;69.31;100848.72;5092988;27;46927;-56
2022/09/06 01:26:11;;;;;;;;;8.00;6.00;;;;;21.00;69.17;100843.47;5101346;27;45437;-54
2022/09/06 01:28:41;;;;;;;;;6.00;6.00;;;;;21.00;69.22;100843.47;5109695;27;45444;-56
2022/09/06 01:31:35;;;;;;;;;5.33;5.33;;;;;21.02;69.38;100846.84;5100262;27;45357;-55
2022/09/06 01:34:06;;;;;;;;;4.00;4.00;;;;;21.01;68.83;100842.44;5099441;27;45439;-54
2022/09/06 01:36:46;;;;;;;;;5.67;5.33;;;;;21.00;68.88;100838.06;5098729;27;47069;-56
2022/09/06 01:39:21;;;;;;;;;6.50;5.00;;;;;20.99;69.00;100847.16;5099237;27;45392;-58
2022/09/06 01:41:47;;;;;;;;;6.00;6.00;;;;;21.00;69.01;100845.31;5097396;27;45498;-57
2022/09/06 01:44:13;;;;;;;;;6.67;6.67;;;;;20.99;68.92;100852.56;5098476;27;45450;-55
2022/09/06 01:46:50;;;;;;;;;6.00;6.00;;;;;21.00;69.11;100848.88;5100006;27;45301;-56
2022/09/06 01:49:38;;;;;;;;;4.33;4.33;;;;;21.00;69.11;100842.59;5096542;27;45566;-53
2022/09/06 01:52:06;;;;;;;;;6.25;6.25;;;;;21.00;68.70;100843.47;5098393;27;45310;-54
2022/09/06 01:54:43;;;;;;;;;8.00;7.00;;;;;21.00;68.94;100848.88;5100347;27;45449;-54
2022/09/06 01:57:24;;;;;;;;;6.33;5.67;;;;;21.01;68.88;100845.16;5099696;27;45524;-55
2022/09/06 02:00:03;;;;;;;;;11.00;6.33;;;;;21.01;69.04;100841.59;5097828;27;46050;-56
2022/09/06 02:02:53;;;;;;;;;5.00;5.00;;;;;21.02;68.75;100838.75;5098478;27;45420;-57
2022/09/06 02:05:36;;;;;;;;;8.33;6.00;;;;;21.04;68.50;100834.03;5089837;27;45352;-57
2022/09/06 02:08:09;;;;;;;;;4.67;4.67;;;;;21.01;68.55;100828.94;5098339;27;45381;-56
2022/09/06 02:10:53;;;;;;;;;6.33;6.00;;;;;21.03;68.66;100826.94;5098768;27;46688;-58
2022/09/06 02:13:23;;;;;;;;;6.00;6.00;;;;;20.97;68.24;100811.31;5099892;27;45337;-56
2022/09/06 02:15:59;;;;;;;;;6.33;6.33;;;;;21.01;68.55;100814.56;5099071;27;45180;-55
2022/09/06 02:18:32;;;;;;;;;8.00;6.00;;;;;21.00;68.30;100808.31;5098859;27;45352;-56
2022/09/06 02:21:01;;;;;;;;;6.00;5.00;;;;;21.04;68.42;100823.22;5095976;27;45529;-56
2022/09/06 02:23:32;;;;;;;;;7.25;6.75;;;;;21.02;68.13;100829.78;5090853;27;45397;-56
2022/09/06 02:26:06;;;;;;;;;5.33;5.33;;;;;21.03;68.61;100826.09;5092251;27;45268;-56
2022/09/06 02:28:31;;;;;;;;;9.00;7.67;;;;;21.00;68.44;100832.63;5097868;27;45415;-56
2022/09/06 02:31:02;;;;;;;;;8.33;8.33;;;;;21.01;68.67;100825.38;5097140;27;46498;-55
2022/09/06 02:33:32;;;;;;;;;7.00;7.00;;;;;21.00;68.62;100838.06;5095903;27;45544;-56
2022/09/06 02:36:04;;;;;;;;;9.00;7.33;;;;;20.97;68.80;100835.66;5096141;27;45471;-56
2022/09/06 02:38:32;;;;;;;;;8.33;8.33;;;;;20.95;69.13;100834.06;5096146;27;45488;-56
2022/09/06 02:40:59;;;;;;;;;6.67;6.67;;;;;20.93;69.76;100836.91;5099114;27;46397;-56
2022/09/06 02:43:25;;;;;;;;;9.33;8.00;;;;;20.91;69.37;100826.25;5097945;27;45323;-56
2022/09/06 02:45:51;;;;;;;;;6.00;6.00;;;;;20.84;69.75;100805.38;5095599;27;45512;-55
2022/09/06 02:48:16;;;;;;;;;8.33;8.33;;;;;20.82;69.67;100815.47;5097949;27;45605;-53
2022/09/06 02:50:41;;;;;;;;;7.33;7.33;;;;;20.86;70.07;100830.41;5095952;27;46117;-55
2022/09/06 02:53:10;;;;;;;;;10.00;8.33;;;;;20.84;70.20;100833.25;5096437;27;45469;-56
2022/09/06 02:55:36;;;;;;;;;8.00;8.00;;;;;20.72;70.49;100811.97;5096949;27;45511;-55
2022/09/06 02:58:02;;;;;;;;;7.33;7.33;;;;;20.77;70.87;100810.50;5092312;27;45415;-56
2022/09/06 03:00:28;;;;;;;;;8.67;8.33;;;;;20.83;70.46;100825.28;5094642;27;46063;-55
2022/09/06 03:02:55;;;;;;;;;10.67;7.33;;;;;20.81;70.72;100816.47;5096584;27;45344;-56
2022/09/06 03:05:21;;;;;;;;;10.00;8.67;;;;;20.75;70.64;100806.25;5096625;27;47023;-56
2022/09/06 03:07:47;;;;;;;;;7.00;7.00;;;;;20.73;70.78;100813.66;5094653;27;45536;-56
2022/09/06 03:10:13;;;;;;;;;8.00;8.00;;;;;20.78;70.88;100823.03;5096595;27;45335;-53
2022/09/06 03:12:38;;;;;;;;;8.33;6.00;;;;;20.78;70.85;100822.16;5097540;27;45262;-55
2022/09/06 03:15:05;;;;;;;;;9.67;9.00;;;;;20.76;70.91;100829.56;5091798;27;45567;-53
2022/09/06 03:17:30;;;;;;;;;9.00;9.00;;;;;20.78;71.10;100841.09;5116652;27;45601;-55
2022/09/06 03:19:55;;;;;;;;;9.00;7.00;;;;;20.80;70.88;100830.97;5108937;27;46134;-56
2022/09/06 03:22:21;;;;;;;;;8.67;8.67;;;;;20.79;71.10;100843.66;5058110;27;1128455;-57
2022/09/06 03:24:47;;;;;;;;;10.00;9.00;;;;;20.78;71.05;100841.09;5097291;27;45674;-56
2022/09/06 03:27:13;;;;;;;;;9.67;9.67;;;;;20.72;71.21;100847.09;5098747;27;45424;-58
2022/09/06 03:29:38;;;;;;;;;7.00;7.00;;;;;20.68;71.45;100840.25;5087967;27;46721;-55
2022/09/06 03:32:04;;;;;;;;;11.33;9.00;;;;;20.65;71.57;100848.66;5091481;27;45389;-55
2022/09/06 03:34:29;;;;;;;;;8.67;8.67;;;;;20.65;71.78;100848.66;5096693;27;45391;-55
2022/09/06 03:36:54;;;;;;;;;9.00;7.67;;;;;20.59;71.82;100844.69;5098886;27;45811;-55
2022/09/06 03:39:20;;;;;;;;;10.00;9.67;;;;;20.61;71.90;100858.91;5099097;27;45400;-59
2022/09/06 03:41:45;;;;;;;;;7.00;7.00;;;;;20.60;71.85;100863.47;5110218;27;45939;-54
2022/09/06 03:44:10;;;;;;;;;9.33;9.33;;;;;20.59;71.94;100866.31;5080724;27;46980;-55
2022/09/06 03:46:36;;;;;;;;;7.67;7.67;;;;;20.61;71.72;100870.56;5110441;27;45550;-53
2022/09/06 03:49:02;;;;;;;;;9.33;8.00;;;;;20.60;71.71;100868.00;5077434;27;45290;-55
2022/09/06 03:51:27;;;;;;;;;8.00;8.00;;;;;20.56;71.64;100871.97;5095883;27;45496;-56
2022/09/06 03:53:53;;;;;;;;;8.67;7.00;;;;;20.56;71.58;100878.22;5098185;27;45428;-62
2022/09/06 03:56:18;;;;;;;;;7.67;7.67;;;;;20.51;71.29;100871.56;5084066;27;45383;-56
2022/09/06 03:58:43;;;;;;;;;9.33;7.00;;;;;20.52;71.44;100882.22;5089051;27;45424;-54
2022/09/06 04:01:10;;;;;;;;;8.33;8.33;;;;;20.51;71.60;100880.53;5095692;27;45396;-55
2022/09/06 04:03:37;;;;;;;;;8.00;8.00;;;;;20.52;71.50;100886.78;5097190;27;45279;-56
2022/09/06 04:06:04;;;;;;;;;11.67;9.00;;;;;20.53;71.38;100889.34;5094488;27;45559;-55
2022/09/06 04:08:30;;;;;;;;;8.33;8.00;;;;;20.51;71.27;100891.34;5096212;27;46251;-53
2022/09/06 04:10:57;;;;;;;;;7.33;7.33;;;;;20.49;71.14;100887.94;5097491;27;45775;-53
2022/09/06 04:13:24;;;;;;;;;8.33;6.00;;;;;20.39;71.59;100876.22;5097850;27;45466;-55
2022/09/06 04:15:50;;;;;;;;;7.00;5.67;;;;;20.46;71.04;100893.63;5087135;27;45460;-56
2022/09/06 04:18:15;;;;;;;;;9.00;9.00;;;;;20.47;70.65;100898.03;5076833;27;46332;-55
2022/09/06 04:20:41;;;;;;;;;7.33;7.33;;;;;20.41;70.48;100885.03;5094843;27;45528;-54
2022/09/06 04:23:07;;;;;;;;;8.00;8.00;;;;;20.43;70.26;100899.28;5106422;27;45408;-56
2022/09/06 04:25:34;;;;;;;;;7.00;7.00;;;;;20.47;70.31;100906.13;5095164;27;47213;-53
2022/09/06 04:27:59;;;;;;;;;8.00;8.00;;;;;20.49;70.43;100906.84;5092846;27;45287;-56
2022/09/06 04:30:24;;;;;;;;;7.00;7.00;;;;;20.46;70.49;100904.44;5108953;27;45184;-55
2022/09/06 04:32:50;;;;;;;;;7.33;7.33;;;;;20.44;70.47;100911.78;5088135;27;45407;-55
2022/09/06 04:35:15;;;;;;;;;7.67;7.67;;;;;20.45;70.65;100921.63;5096917;27;45221;-56
2022/09/06 04:37:40;;;;;;;;;6.00;6.00;;;;;20.41;70.80;100912.06;5095430;27;47168;-54
2022/09/06 04:40:06;;;;;;;;;6.00;4.67;;;;;20.46;70.59;100915.22;5094801;27;45398;-55
2022/09/06 04:42:32;;;;;;;;;6.33;6.33;;;;;20.40;70.41;100901.38;5096942;27;45373;-56
2022/09/06 04:44:57;;;;;;;;;9.67;8.00;;;;;20.44;69.76;100919.03;5096829;27;45292;-54
2022/09/06 04:47:24;;;;;;;;;7.00;7.00;;;;;20.38;69.10;100915.03;5095530;27;46966;-55
2022/09/06 04:49:49;;;;;;;;;7.33;6.00;;;;;20.37;69.26;100921.44;5079491;27;45599;-57
2022/09/06 04:52:15;;;;;;;;;9.00;7.00;;;;;20.32;69.10;100926.44;5098611;27;45415;-55
2022/09/06 04:54:40;;;;;;;;;7.00;6.00;;;;;20.33;69.00;100934.38;5098089;27;45309;-56
2022/09/06 04:57:06;;;;;;;;;7.33;7.33;;;;;20.24;68.84;100920.84;5097120;27;45893;-56
2022/09/06 04:59:31;;;;;;;;;7.00;7.00;;;;;20.36;68.35;100940.50;5098791;27;45457;-58
2022/09/06 05:01:57;;;;;;;;;7.00;7.00;;;;;20.33;68.32;100937.09;5096149;27;45434;-54
2022/09/06 05:04:23;;;;;;;;;7.33;7.33;;;;;20.31;68.01;100938.19;5094061;27;45333;-56
2022/09/06 05:06:49;;;;;;;;;10.00;8.67;;;;;20.30;67.90;100936.50;5090141;27;45510;-57
2022/09/06 05:09:14;;;;;;;;;7.33;7.00;;;;;20.27;67.98;100940.34;5092152;27;45421;-54
2022/09/06 05:11:40;;;;;;;;;8.33;8.33;;;;;20.28;68.00;100938.47;5095776;27;45330;-54
2022/09/06 05:14:05;;;;;;;;;8.33;7.00;;;;;20.20;68.10;100931.09;5099279;27;45475;-55
2022/09/06 05:16:30;;;;;;;;;7.00;7.00;;;;;20.07;67.67;100903.50;5114102;27;47206;-55
2022/09/06 05:18:56;;;;;;;;;8.00;6.00;;;;;20.21;67.97;100930.09;5091978;27;45562;-54
2022/09/06 05:21:22;;;;;;;;;9.67;9.00;;;;;20.25;67.84;100934.22;5095337;27;45525;-57
2022/09/06 05:23:47;;;;;;;;;7.00;6.00;;;;;20.22;67.77;100920.16;5094345;27;45462;-57
2022/09/06 05:26:12;;;;;;;;;6.67;6.67;;;;;20.25;68.05;100936.91;5093824;27;46456;-56
2022/09/06 05:28:38;;;;;;;;;8.00;6.67;;;;;20.26;67.64;100935.06;5096546;27;45486;-56
2022/09/06 05:31:24;;;;;;;;;5.00;5.00;;;;;20.24;67.30;100928.97;5106336;27;45530;-54
2022/09/06 05:33:52;;;;;;;;;6.67;5.33;;;;;20.24;67.42;100939.75;5095912;27;45574;-56
2022/09/06 05:36:17;;;;;;;;;7.33;6.33;;;;;20.19;67.16;100936.66;5095073;27;45362;-56
2022/09/06 05:38:42;;;;;;;;;6.00;6.00;;;;;20.17;67.31;100944.84;5094459;27;45559;-55
2022/09/06 05:41:08;;;;;;;;;6.33;5.67;;;;;20.19;67.91;100948.28;5096084;27;46952;-55
2022/09/06 05:43:33;;;;;;;;;8.00;7.00;;;;;20.13;67.44;100919.13;5094379;27;45511;-56
2022/09/06 05:45:59;;;;;;;;;7.00;7.00;;;;;20.18;67.04;100933.09;5094627;27;49197;-57
2022/09/06 05:48:24;;;;;;;;;6.33;6.00;;;;;20.21;67.36;100927.41;5106493;27;45290;-59
2022/09/06 05:51:08;;;;;;;;;6.33;6.33;;;;;20.20;67.22;100927.53;5096733;27;45189;-59
2022/09/06 05:53:43;;;;;;;;;4.67;4.67;;;;;20.19;67.40;100923.13;5089190;27;45174;-60
2022/09/06 05:56:13;;;;;;;;;6.33;5.00;;;;;20.20;67.15;100911.34;5095393;27;45663;-58
2022/09/06 05:58:38;;;;;;;;;4.67;4.67;;;;;20.27;67.10;100913.31;5095438;27;45445;-56
2022/09/06 06:01:16;;;;;;;;;8.00;8.00;;;;;20.36;67.05;100919.75;5095870;27;45432;-58
2022/09/06 06:03:48;;;;;;;;;8.00;6.33;;;;;20.40;66.78;100923.00;5095252;27;45566;-60
2022/09/06 06:06:13;;;;;;;;;5.33;5.00;;;;;20.41;66.71;100922.84;5088370;27;45475;-61
2022/09/06 06:08:39;;;;;;;;;7.00;6.00;;;;;20.43;66.97;100910.09;5094254;27;45446;-58
2022/09/06 06:11:04;;;;;;;;;6.67;6.00;;;;;20.47;66.34;100916.94;5089944;27;45274;-58
2022/09/06 06:13:33;;;;;;;;;7.33;7.33;;;;;20.53;66.51;100910.09;5096467;27;45400;-58
2022/09/06 06:15:59;;;;;;;;;7.33;6.33;;;;;20.61;66.37;100924.63;5095784;27;46310;-57
2022/09/06 06:18:25;;;;;;;;;6.00;6.00;;;;;20.63;66.01;100915.50;5094843;27;45535;-58
2022/09/06 06:20:50;;;;;;;;;8.00;6.00;;;;;20.74;65.92;100915.38;5092536;27;45450;-55
2022/09/06 06:23:16;;;;;;;;;6.67;5.33;;;;;20.81;65.86;100919.19;5094035;27;45684;-57
2022/09/06 06:25:41;;;;;;;;;5.67;5.33;;;;;20.86;65.42;100914.22;5094883;27;47325;-58
2022/09/06 06:28:07;;;;;;;;;7.00;5.00;;;;;20.92;64.97;100903.66;5095721;27;45321;-57
2022/09/06 06:30:32;;;;;;;;;7.00;6.00;;;;;20.93;64.96;100893.69;5081459;27;45519;-58
2022/09/06 06:32:59;;;;;;;;;6.00;5.33;;;;;21.04;64.62;100898.94;5098291;27;45526;-57
2022/09/06 06:35:24;;;;;;;;;8.00;8.00;;;;;21.06;64.58;100896.09;5092450;27;45503;-59
2022/09/06 06:37:50;;;;;;;;;10.67;7.00;;;;;21.10;64.57;100895.66;5094903;27;45913;-59
2022/09/06 06:40:15;;;;;;;;;5.67;5.67;;;;;21.19;64.26;100900.16;5087695;27;45762;-58
2022/09/06 06:42:40;;;;;;;;;7.00;7.00;;;;;21.28;63.95;100901.19;5091662;27;45464;-58
2022/09/06 06:45:07;;;;;;;;;6.67;6.67;;;;;21.35;63.69;100905.00;5090513;27;46128;-59
2022/09/06 06:47:32;;;;;;;;;6.67;6.33;;;;;21.42;63.82;100903.41;5100450;27;45353;-60
2022/09/06 06:49:58;;;;;;;;;7.33;7.33;;;;;21.48;63.38;100918.19;5084840;27;45429;-59
2022/09/06 06:52:24;;;;;;;;;6.00;6.00;;;;;21.51;63.63;100917.06;5082413;27;45381;-59
2022/09/06 06:54:50;;;;;;;;;8.00;5.00;;;;;21.55;63.24;100915.75;5095519;27;45219;-60
2022/09/06 06:57:15;;;;;;;;;7.67;7.00;;;;;21.55;63.22;100907.63;5082703;27;45496;-59
2022/09/06 06:59:41;;;;;;;;;5.33;5.33;;;;;21.57;63.00;100911.88;5092783;27;45478;-60
2022/09/06 07:02:06;;;;;;;;;6.67;6.00;;;;;21.59;62.41;100909.03;5091949;27;45506;-59
2022/09/06 07:04:31;;;;;;;;;7.00;5.00;;;;;21.55;62.56;100915.75;5074937;27;48157;-56
2022/09/06 07:06:57;;;;;;;;;7.67;5.00;;;;;21.47;63.07;100897.53;5092845;27;45355;-58
2022/09/06 07:09:23;;;;;;;;;11.00;6.00;;;;;21.52;62.60;100903.38;5091592;27;45543;-58
2022/09/06 07:11:49;;;;;;;;;7.00;6.00;;;;;21.53;62.50;100902.38;5083605;27;45499;-56
2022/09/06 07:14:18;;;;;;;;;7.33;6.67;;;;;21.58;62.64;100910.03;5091942;27;45504;-58
2022/09/06 07:16:44;;;;;;;;;7.00;7.00;;;;;21.56;62.30;100898.50;5093165;27;45472;-60
2022/09/06 07:19:10;;;;;;;;;4.00;4.00;;;;;21.54;62.45;100903.22;5089030;27;45482;-60
2022/09/06 07:21:38;;;;;;;;;6.00;5.00;;;;;21.49;62.43;100895.56;5094524;27;45528;-59
2022/09/06 07:24:06;;;;;;;;;8.00;6.00;;;;;21.50;62.41;100889.16;5094208;27;46729;-61
2022/09/06 07:26:35;;;;;;;;;7.67;7.67;;;;;21.53;62.27;100888.00;5092708;27;45561;-58
2022/09/06 07:29:02;;;;;;;;;5.00;5.00;;;;;21.57;61.90;100902.91;5093079;27;45592;-58
2022/09/06 07:31:30;;;;;;;;;6.50;6.00;;;;;21.58;62.19;100897.34;5096031;27;45808;-59
2022/09/06 07:33:55;;;;;;;;;6.50;6.00;;;;;21.59;62.32;100899.06;5093011;27;46682;-59
2022/09/06 07:36:20;;;;;;;;;7.25;6.50;;;;;21.56;61.99;100885.84;5093959;27;45964;-61
2022/09/06 07:38:50;;;;;;;;;7.50;6.00;;;;;21.61;61.98;100888.06;5089960;27;45322;-59
2022/09/06 07:41:17;;;;;;;;;4.50;4.00;;;;;21.68;61.86;100898.16;5092474;27;45478;-57
2022/09/06 07:43:43;;;;;;;;;5.75;5.75;;;;;21.66;62.10;100899.31;5092561;27;45560;-59
2022/09/06 07:46:11;;;;;;;;;5.00;5.00;;;;;21.61;62.20;100907.88;5093596;27;45528;-59
2022/09/06 07:48:39;;;;;;;;;5.00;5.00;;;;;21.61;62.05;100912.44;5097155;27;45298;-57
2022/09/06 07:51:20;;;;;;;;;7.00;5.75;;;;;21.64;62.20;100912.16;5096310;27;45326;-58
2022/09/06 07:53:51;;;;;;;;;6.33;6.00;;;;;21.67;62.13;100918.13;5092978;27;46142;-58
2022/09/06 07:56:19;;;;;;;;;6.25;4.75;;;;;21.69;61.74;100916.09;5088689;27;45526;-58
2022/09/06 07:58:44;;;;;;;;;7.00;7.00;;;;;21.72;61.52;100923.06;5084376;27;45398;-62
2022/09/06 08:01:30;;;;;;;;;11.00;7.67;;;;;21.81;62.27;100926.75;5092198;27;45563;-57
2022/09/06 08:04:01;;;;;;;;;6.00;6.00;;;;;21.83;61.24;100932.84;5091239;27;46485;-58
2022/09/06 08:06:28;;;;;;;;;6.00;6.00;;;;;21.77;60.95;100924.34;5092240;27;45440;-58
2022/09/06 08:08:54;;;;;;;;;8.00;5.00;;;;;21.78;60.54;100934.16;5093722;27;45493;-61
2022/09/06 08:11:20;;;;;;;;;4.25;4.25;;;;;21.82;60.13;100928.44;5087144;27;45341;-60
2022/09/06 08:13:51;;;;;;;;;6.67;5.33;;;;;21.83;59.50;100916.63;5083669;27;48765;-60
2022/09/06 08:16:17;;;;;;;;;8.67;6.00;;;;;21.86;59.53;100914.44;5087984;27;45321;-58
2022/09/06 08:18:42;;;;;;;;;4.33;4.33;;;;;21.90;59.44;100912.31;5089653;27;45858;-59
2022/09/06 08:21:15;;;;;;;;;7.00;5.00;;;;;21.98;59.37;100915.94;5082240;27;45654;-59
2022/09/06 08:23:47;;;;;;;;;7.00;5.00;;;;;22.02;59.99;100916.50;5090879;27;45285;-60
2022/09/06 08:26:14;;;;;;;;;5.67;5.67;;;;;22.02;60.12;100917.38;5096511;27;45438;-59
2022/09/06 08:28:39;;;;;;;;;7.67;5.00;;;;;22.06;59.00;100918.78;5108822;27;45415;-58
2022/09/06 08:31:10;;;;;;;;;7.50;6.50;;;;;22.09;59.48;100917.63;5077922;27;45276;-58
2022/09/06 08:33:36;;;;;;;;;9.00;5.67;;;;;22.19;59.45;100907.59;5078817;27;46252;-59
2022/09/06 08:36:03;;;;;;;;;14.00;8.00;;;;;22.28;59.53;100905.81;5082944;27;45436;-60
2022/09/06 08:38:29;;;;;;;;;7.25;7.25;;;;;22.35;59.04;100896.06;5095259;27;45350;-59
2022/09/06 08:41:13;;;;;;;;;7.00;7.00;;;;;22.54;58.78;100889.63;5107756;27;45423;-59
2022/09/06 08:43:48;;;;;;;;;9.25;6.75;;;;;22.86;58.09;100884.50;5076880;27;45338;-59
2022/09/06 08:46:16;;;;;;;;;9.75;5.50;;;;;23.34;56.06;100893.13;5079849;27;45429;-59
2022/09/06 08:48:41;;;;;;;;;6.00;5.00;;;;;23.65;54.53;100883.44;5096203;27;45376;-60
2022/09/06 08:51:45;;;;;;;;;5.00;5.00;;;;;24.06;52.07;100881.72;5096178;27;45263;-61
2022/09/06 08:54:26;;;;;;;;;7.00;5.75;;;;;24.50;52.58;100880.63;5089829;27;45458;-58
2022/09/06 08:57:13;;;;;;;;;4.00;2.60;;;;;24.77;49.25;100879.44;5083113;27;45458;-59
2022/09/06 08:59:41;;;;;;;;;4.75;3.50;;;;;25.16;49.63;100866.81;5097082;27;45263;-59
2022/09/06 09:02:10;;;;;;;;;4.00;4.00;;;;;25.54;46.10;100886.09;5096189;27;45180;-60
2022/09/06 09:04:41;;;;;;;;;2.00;2.00;;;;;25.79;45.11;100879.56;5096772;27;47043;-59
2022/09/06 09:07:50;;;;;;;;;2.60;2.60;;;;;26.11;46.86;100872.22;5090373;27;45336;-60
2022/09/06 09:10:52;;;;;;;;;3.40;2.20;;;;;26.40;42.83;100872.38;5044658;28;45538;-59
2022/09/06 09:13:44;;;;;;;;;2.25;2.25;;;;;26.61;44.25;100879.03;5039798;28;45544;-60
2022/09/06 09:16:10;;;;;;;;;1.80;1.80;;;;;26.74;44.55;100884.72;5068923;27;46270;-59
2022/09/06 09:18:39;;;;;;;;;2.80;2.80;;;;;26.98;44.10;100898.16;5076131;27;45313;-58
2022/09/06 09:21:05;;;;;;;;;2.20;2.00;;;;;27.21;42.85;100905.44;5076035;27;45427;-60
2022/09/06 09:23:31;;;;;;;;;3.75;3.25;;;;;27.49;43.17;100905.66;5076348;27;45305;-60
2022/09/06 09:26:04;;;;;;;;;5.40;3.60;;;;;27.78;44.32;100911.13;5076795;27;46110;-60
2022/09/06 09:28:30;;;;;;;;;4.60;3.20;;;;;28.00;41.08;100892.91;5094554;27;45536;-60
2022/09/06 09:30:56;;;;;;;;;4.00;3.00;;;;;28.15;42.84;100899.19;5096702;27;45836;-59
2022/09/06 09:33:29;;;;;;;;;3.20;2.00;;;;;28.35;41.45;100902.16;5096635;27;45522;-60
2022/09/06 09:35:58;;;;;;;;;5.00;3.20;;;;;28.49;41.95;100916.81;5096138;27;46075;-60
2022/09/06 09:38:30;;;;;;;;;2.00;2.00;;;;;28.37;39.88;100910.16;5095075;27;45436;-59
2022/09/06 09:41:02;;;;;;;;;2.00;2.00;;;;;28.42;40.75;100924.13;5096613;27;45370;-60
2022/09/06 09:43:36;;;;;;;;;1.00;1.00;;;;;28.37;42.05;100921.09;5108064;27;45817;-59
2022/09/06 09:46:16;;;;;;;;;2.60;2.60;;;;;28.32;41.26;100918.09;5095432;27;46274;-60
2022/09/06 09:49:09;;;;;;;;;5.00;4.00;;;;;28.15;41.74;100917.47;5096428;27;45399;-59
2022/09/06 09:51:59;;;;;;;;;4.00;2.60;;;;;27.97;41.99;100908.81;5098038;27;45474;-60
2022/09/06 09:54:39;;;;;;;;;4.00;2.60;;;;;27.69;41.14;100905.94;5070536;27;45377;-59
2022/09/06 09:57:10;;;;;;;;;4.00;2.00;;;;;27.44;42.51;100894.44;5095415;27;45553;-60
2022/09/06 09:59:38;;;;;;;;;1.00;1.00;;;;;27.12;42.95;100887.47;5079314;27;45287;-60
2022/09/06 10:02:23;;;;;;;;;2.40;2.40;;;;;26.86;43.56;100896.91;5079193;27;45334;-60
2022/09/06 10:04:51;;;;;;;;;0.00;0.00;;;;;26.74;43.05;100909.28;5079425;27;45706;-60
2022/09/06 10:07:20;;;;;;;;;2.20;2.20;;;;;26.55;43.66;100901.56;5079596;27;45525;-59
2022/09/06 10:10:11;;;;;;;;;4.60;2.00;;;;;26.51;45.55;100919.34;5080090;27;45340;-54
2022/09/06 10:12:38;;;;;;;;;3.60;3.60;;;;;26.51;45.99;100913.88;5079349;27;45394;-58
2022/09/06 10:15:09;;;;;;;;;3.00;2.60;;;;;26.45;45.50;100923.66;5079875;27;45482;-58
2022/09/06 10:17:46;;;;;;;;;6.00;3.20;;;;;26.37;46.14;100918.25;5083724;27;46187;-57
2022/09/06 10:20:11;;;;;;;;;3.80;3.80;;;;;26.25;46.20;100934.13;5101270;27;45369;-56
2022/09/06 10:22:50;;;;;;;;;4.50;3.00;;;;;26.19;46.36;100934.88;5098686;27;45375;-67
2022/09/06 10:25:38;;;;;;;;;3.80;3.60;;;;;26.25;46.63;100925.13;5099609;27;45491;-67
2022/09/06 10:28:22;;;;;;;;;4.00;4.00;;;;;26.35;46.60;100932.03;5097392;27;46340;-66
2022/09/06 10:31:05;;;;;;;;;5.40;5.40;;;;;26.36;46.59;100920.13;5098049;27;45233;-58
2022/09/06 10:33:46;;;;;;;;;8.60;6.20;;;;;26.21;47.09;100913.72;5078754;27;45173;-72
2022/09/06 10:36:18;;;;;;;;;6.00;6.00;;;;;26.17;47.75;100924.16;5079402;27;45304;-60
2022/09/06 10:38:55;;;;;;;;;5.00;5.00;;;;;26.02;46.81;100912.28;5079349;27;45353;-59
2022/09/06 10:41:46;;;;;;;;;5.20;4.40;;;;;25.88;47.50;100888.53;5099722;27;45451;-60
2022/09/06 10:44:41;;;;;;;;;6.00;4.00;;;;;25.72;47.99;100886.72;5100482;27;45422;-61
2022/09/06 10:47:12;;;;;;;;;4.25;2.75;;;;;25.53;47.62;100876.25;5091892;27;45405;-59
2022/09/06 10:49:42;;;;;;;;;4.25;3.00;;;;;25.40;48.11;100855.00;5097393;27;46374;-58
2022/09/06 10:52:14;;;;;;;;;5.60;4.80;;;;;25.35;48.31;100842.94;5122412;27;45280;-58
2022/09/06 10:54:40;;;;;;;;;5.00;4.40;;;;;25.28;48.56;100838.19;5117278;27;45311;-59
2022/09/06 10:57:28;;;;;;;;;5.50;4.75;;;;;25.21;48.07;100845.34;5099320;27;46115;-58
2022/09/06 11:00:12;;;;;;;;;3.75;3.75;;;;;25.18;48.80;100840.28;5112419;27;46399;-58
2022/09/06 11:02:53;;;;;;;;;4.00;3.00;;;;;25.10;49.54;100844.88;5119546;27;45363;-57
2022/09/06 11:05:28;;;;;;;;;6.25;6.00;;;;;25.14;50.28;100852.53;5106448;27;45370;-58
2022/09/06 11:08:02;;;;;;;;;6.50;6.50;;;;;25.14;50.85;100833.50;5088537;27;45497;-57
2022/09/06 11:10:36;;;;;;;;;10.00;8.50;;;;;25.24;50.99;100839.56;5097735;27;45374;-58
2022/09/06 11:13:15;;;;;;;;;7.75;5.00;;;;;25.33;50.54;100840.38;5099236;27;45526;-58
2022/09/06 11:15:44;;;;;;;;;9.00;8.00;;;;;25.41;50.29;100832.19;5099121;27;45408;-59
2022/09/06 11:18:40;;;;;;;;;7.75;6.00;;;;;25.57;50.24;100839.44;5097485;27;45517;-57
2022/09/06 11:21:27;;;;;;;;;8.50;7.25;;;;;25.62;49.93;100834.31;5098153;27;45407;-57
2022/09/06 11:23:58;;;;;;;;;8.80;6.80;;;;;25.57;50.38;100836.72;5079986;27;45434;-56
2022/09/06 11:26:55;;;;;;;;;7.00;6.25;;;;;25.55;50.68;100833.34;5083074;27;45564;-59
2022/09/06 11:29:25;;;;;;;;;8.00;8.00;;;;;25.53;49.84;100819.06;5067002;27;45739;-57
2022/09/06 11:31:56;;;;;;;;;6.25;6.25;;;;;25.52;50.77;100823.66;5098933;27;48278;-59
2022/09/06 11:34:26;;;;;;;;;5.80;5.80;;;;;25.44;50.12;100801.03;5117696;27;45435;-58
2022/09/06 11:37:03;;;;;;;;;6.20;5.00;;;;;25.43;50.55;100802.91;5101205;27;45234;-58
2022/09/06 11:39:35;;;;;;;;;5.50;4.50;;;;;25.36;49.63;100804.63;5092116;27;45476;-57